sensor_id;sensor_type;location;lat;lon;timestamp;P1;durP1;ratioP1;P2;durP2;ratioP2
10031;SDS011;5056;44.272;19.892;2023-05-10T00:01:34;5.40;;;4.60;;
10031;SDS011;5056;44.272;19.892;2023-05-10T00:04:01;5.07;;;4.60;;
10031;SDS011;5056;44.272;19.892;2023-05-10T00:06:29;6.43;;;5.80;;
10031;SDS011;5056;44.272;19.892;2023-05-10T00:08:56;8.67;;;5.97;;
10031;SDS011;5056;44.272;19.892;2023-05-10T00:11:23;6.07;;;5.47;;
10031;SDS011;5056;44.272;19.892;2023-05-10T00:14:00;6.77;;;5.40;;
10031;SDS011;5056;44.272;19.892;2023-05-10T00:16:27;5.50;;;5.00;;
10031;SDS011;5056;44.272;19.892;2023-05-10T00:18:55;5.80;;;5.13;;
10031;SDS011;5056;44.272;19.892;2023-05-10T00:23:54;5.10;;;4.60;;
10031;SDS011;5056;44.272;19.892;2023-05-10T00:26:22;4.77;;;4.30;;
10031;SDS011;5056;44.272;19.892;2023-05-10T00:28:49;4.70;;;4.13;;
10031;SDS011;5056;44.272;19.892;2023-05-10T00:31:17;5.20;;;4.40;;
10031;SDS011;5056;44.272;19.892;2023-05-10T00:33:44;4.87;;;4.03;;
10031;SDS011;5056;44.272;19.892;2023-05-10T00:36:14;5.10;;;4.60;;
10031;SDS011;5056;44.272;19.892;2023-05-10T00:38:41;4.53;;;4.13;;
10031;SDS011;5056;44.272;19.892;2023-05-10T00:41:09;4.63;;;4.17;;
10031;SDS011;5056;44.272;19.892;2023-05-10T00:43:36;4.70;;;3.90;;
10031;SDS011;5056;44.272;19.892;2023-05-10T00:46:04;5.20;;;4.13;;
10031;SDS011;5056;44.272;19.892;2023-05-10T00:48:32;4.60;;;4.20;;
10031;SDS011;5056;44.272;19.892;2023-05-10T00:50:59;4.87;;;4.13;;
10031;SDS011;5056;44.272;19.892;2023-05-10T00:53:29;4.47;;;3.57;;
10031;SDS011;5056;44.272;19.892;2023-05-10T00:55:57;3.97;;;3.67;;
10031;SDS011;5056;44.272;19.892;2023-05-10T00:58:25;5.50;;;4.33;;
10031;SDS011;5056;44.272;19.892;2023-05-10T01:00:53;3.87;;;3.57;;
10031;SDS011;5056;44.272;19.892;2023-05-10T01:03:21;3.73;;;3.50;;
10031;SDS011;5056;44.272;19.892;2023-05-10T01:05:48;3.10;;;3.00;;
10031;SDS011;5056;44.272;19.892;2023-05-10T01:08:16;4.47;;;3.80;;
10031;SDS011;5056;44.272;19.892;2023-05-10T01:10:44;5.07;;;4.67;;
10031;SDS011;5056;44.272;19.892;2023-05-10T01:13:14;4.47;;;4.07;;
10031;SDS011;5056;44.272;19.892;2023-05-10T01:15:45;3.87;;;3.53;;
10031;SDS011;5056;44.272;19.892;2023-05-10T01:18:13;8.57;;;4.40;;
10031;SDS011;5056;44.272;19.892;2023-05-10T01:20:40;5.07;;;4.67;;
10031;SDS011;5056;44.272;19.892;2023-05-10T01:23:16;4.30;;;3.97;;
10031;SDS011;5056;44.272;19.892;2023-05-10T01:26:02;5.00;;;4.30;;
10031;SDS011;5056;44.272;19.892;2023-05-10T01:28:58;6.33;;;4.67;;
10031;SDS011;5056;44.272;19.892;2023-05-10T01:31:35;5.00;;;4.60;;
10031;SDS011;5056;44.272;19.892;2023-05-10T01:34:25;5.27;;;3.97;;
10031;SDS011;5056;44.272;19.892;2023-05-10T01:36:58;4.53;;;4.13;;
10031;SDS011;5056;44.272;19.892;2023-05-10T01:39:28;3.87;;;3.60;;
10031;SDS011;5056;44.272;19.892;2023-05-10T01:42:00;5.80;;;3.90;;
10031;SDS011;5056;44.272;19.892;2023-05-10T01:44:34;4.00;;;3.70;;
10031;SDS011;5056;44.272;19.892;2023-05-10T01:47:05;4.30;;;4.00;;
10031;SDS011;5056;44.272;19.892;2023-05-10T01:49:36;4.57;;;4.13;;
10031;SDS011;5056;44.272;19.892;2023-05-10T01:52:06;5.17;;;4.77;;
10031;SDS011;5056;44.272;19.892;2023-05-10T01:54:36;4.17;;;3.87;;
10031;SDS011;5056;44.272;19.892;2023-05-10T01:57:08;4.97;;;4.17;;
10031;SDS011;5056;44.272;19.892;2023-05-10T01:59:37;5.97;;;3.80;;
10031;SDS011;5056;44.272;19.892;2023-05-10T02:02:08;5.03;;;4.63;;
10031;SDS011;5056;44.272;19.892;2023-05-10T02:04:37;4.97;;;4.60;;
10031;SDS011;5056;44.272;19.892;2023-05-10T02:07:06;4.87;;;4.43;;
10031;SDS011;5056;44.272;19.892;2023-05-10T02:09:33;4.60;;;4.20;;
10031;SDS011;5056;44.272;19.892;2023-05-10T02:12:02;4.13;;;3.73;;
10031;SDS011;5056;44.272;19.892;2023-05-10T02:14:31;4.67;;;4.27;;
10031;SDS011;5056;44.272;19.892;2023-05-10T02:17:00;4.40;;;4.10;;
10031;SDS011;5056;44.272;19.892;2023-05-10T02:19:35;4.83;;;4.33;;
10031;SDS011;5056;44.272;19.892;2023-05-10T02:22:03;4.20;;;3.90;;
10031;SDS011;5056;44.272;19.892;2023-05-10T02:24:34;5.97;;;4.40;;
10031;SDS011;5056;44.272;19.892;2023-05-10T02:27:04;5.53;;;3.93;;
10031;SDS011;5056;44.272;19.892;2023-05-10T02:29:33;4.43;;;4.13;;
10031;SDS011;5056;44.272;19.892;2023-05-10T02:32:07;4.80;;;3.83;;
10031;SDS011;5056;44.272;19.892;2023-05-10T02:34:41;4.27;;;3.90;;
10031;SDS011;5056;44.272;19.892;2023-05-10T02:37:10;6.33;;;4.27;;
10031;SDS011;5056;44.272;19.892;2023-05-10T02:39:37;4.87;;;4.47;;
10031;SDS011;5056;44.272;19.892;2023-05-10T02:42:08;4.80;;;4.40;;
10031;SDS011;5056;44.272;19.892;2023-05-10T02:44:51;4.57;;;4.17;;
10031;SDS011;5056;44.272;19.892;2023-05-10T02:47:22;5.10;;;4.60;;
10031;SDS011;5056;44.272;19.892;2023-05-10T02:49:53;4.77;;;4.17;;
10031;SDS011;5056;44.272;19.892;2023-05-10T02:52:21;3.90;;;3.50;;
10031;SDS011;5056;44.272;19.892;2023-05-10T02:54:50;4.67;;;4.27;;
10031;SDS011;5056;44.272;19.892;2023-05-10T02:57:22;7.20;;;4.73;;
10031;SDS011;5056;44.272;19.892;2023-05-10T02:59:51;5.27;;;4.87;;
10031;SDS011;5056;44.272;19.892;2023-05-10T03:02:19;5.97;;;4.70;;
10031;SDS011;5056;44.272;19.892;2023-05-10T03:04:46;5.43;;;4.90;;
10031;SDS011;5056;44.272;19.892;2023-05-10T03:07:15;5.03;;;4.50;;
10031;SDS011;5056;44.272;19.892;2023-05-10T03:09:44;5.63;;;5.13;;
10031;SDS011;5056;44.272;19.892;2023-05-10T03:12:13;4.40;;;4.20;;
10031;SDS011;5056;44.272;19.892;2023-05-10T03:14:48;5.27;;;4.83;;
10031;SDS011;5056;44.272;19.892;2023-05-10T03:17:19;6.13;;;4.93;;
10031;SDS011;5056;44.272;19.892;2023-05-10T03:19:51;4.73;;;4.30;;
10031;SDS011;5056;44.272;19.892;2023-05-10T03:22:24;4.33;;;4.03;;
10031;SDS011;5056;44.272;19.892;2023-05-10T03:27:45;7.27;;;4.70;;
10031;SDS011;5056;44.272;19.892;2023-05-10T03:30:13;5.07;;;4.37;;
10031;SDS011;5056;44.272;19.892;2023-05-10T03:32:40;4.90;;;4.37;;
10031;SDS011;5056;44.272;19.892;2023-05-10T03:35:08;6.53;;;5.17;;
10031;SDS011;5056;44.272;19.892;2023-05-10T03:37:36;4.70;;;4.30;;
10031;SDS011;5056;44.272;19.892;2023-05-10T03:42:35;5.63;;;5.03;;
10031;SDS011;5056;44.272;19.892;2023-05-10T03:45:02;4.53;;;4.20;;
10031;SDS011;5056;44.272;19.892;2023-05-10T03:47:31;5.37;;;4.80;;
10031;SDS011;5056;44.272;19.892;2023-05-10T03:50:01;4.60;;;4.20;;
10031;SDS011;5056;44.272;19.892;2023-05-10T03:52:29;4.83;;;4.40;;
10031;SDS011;5056;44.272;19.892;2023-05-10T03:54:58;5.33;;;4.70;;
10031;SDS011;5056;44.272;19.892;2023-05-10T03:57:25;4.97;;;4.10;;
10031;SDS011;5056;44.272;19.892;2023-05-10T03:59:53;4.63;;;4.23;;
10031;SDS011;5056;44.272;19.892;2023-05-10T04:02:20;4.50;;;4.10;;
10031;SDS011;5056;44.272;19.892;2023-05-10T04:04:48;4.57;;;4.20;;
10031;SDS011;5056;44.272;19.892;2023-05-10T04:07:15;4.97;;;4.47;;
10031;SDS011;5056;44.272;19.892;2023-05-10T04:09:43;6.57;;;5.70;;
10031;SDS011;5056;44.272;19.892;2023-05-10T04:12:13;7.93;;;5.87;;
10031;SDS011;5056;44.272;19.892;2023-05-10T04:14:40;7.80;;;6.80;;
10031;SDS011;5056;44.272;19.892;2023-05-10T04:19:57;8.77;;;7.63;;
10031;SDS011;5056;44.272;19.892;2023-05-10T04:22:25;6.20;;;5.70;;
10031;SDS011;5056;44.272;19.892;2023-05-10T04:24:52;6.50;;;5.57;;
10031;SDS011;5056;44.272;19.892;2023-05-10T04:27:21;7.33;;;6.30;;
10031;SDS011;5056;44.272;19.892;2023-05-10T04:29:48;7.20;;;6.50;;
10031;SDS011;5056;44.272;19.892;2023-05-10T04:32:15;6.17;;;5.40;;
10031;SDS011;5056;44.272;19.892;2023-05-10T04:34:42;6.37;;;5.57;;
10031;SDS011;5056;44.272;19.892;2023-05-10T04:37:11;7.10;;;5.60;;
10031;SDS011;5056;44.272;19.892;2023-05-10T04:39:38;6.20;;;5.03;;
10031;SDS011;5056;44.272;19.892;2023-05-10T04:42:07;5.10;;;4.70;;
10031;SDS011;5056;44.272;19.892;2023-05-10T04:44:36;4.93;;;4.43;;
10031;SDS011;5056;44.272;19.892;2023-05-10T04:47:03;5.13;;;4.70;;
10031;SDS011;5056;44.272;19.892;2023-05-10T04:49:30;5.37;;;4.90;;
10031;SDS011;5056;44.272;19.892;2023-05-10T04:51:57;6.17;;;4.60;;
10031;SDS011;5056;44.272;19.892;2023-05-10T04:54:24;5.40;;;5.00;;
10031;SDS011;5056;44.272;19.892;2023-05-10T04:56:51;8.20;;;5.37;;
10031;SDS011;5056;44.272;19.892;2023-05-10T04:59:19;4.80;;;4.30;;
10031;SDS011;5056;44.272;19.892;2023-05-10T05:01:48;5.47;;;4.90;;
10031;SDS011;5056;44.272;19.892;2023-05-10T05:04:14;5.23;;;4.67;;
10031;SDS011;5056;44.272;19.892;2023-05-10T05:06:41;6.20;;;4.40;;
10031;SDS011;5056;44.272;19.892;2023-05-10T05:09:09;6.50;;;4.90;;
10031;SDS011;5056;44.272;19.892;2023-05-10T05:11:36;5.40;;;4.77;;
10031;SDS011;5056;44.272;19.892;2023-05-10T05:14:16;5.43;;;4.43;;
10031;SDS011;5056;44.272;19.892;2023-05-10T05:16:45;5.40;;;4.97;;
10031;SDS011;5056;44.272;19.892;2023-05-10T05:19:14;5.03;;;4.43;;
10031;SDS011;5056;44.272;19.892;2023-05-10T05:21:41;7.27;;;5.40;;
10031;SDS011;5056;44.272;19.892;2023-05-10T05:24:08;5.83;;;5.33;;
10031;SDS011;5056;44.272;19.892;2023-05-10T05:26:36;8.33;;;6.00;;
10031;SDS011;5056;44.272;19.892;2023-05-10T05:29:03;7.30;;;6.63;;
10031;SDS011;5056;44.272;19.892;2023-05-10T05:31:30;7.63;;;6.97;;
10031;SDS011;5056;44.272;19.892;2023-05-10T05:33:58;7.10;;;6.53;;
10031;SDS011;5056;44.272;19.892;2023-05-10T05:36:25;8.57;;;7.77;;
10031;SDS011;5056;44.272;19.892;2023-05-10T05:38:56;6.60;;;5.50;;
10031;SDS011;5056;44.272;19.892;2023-05-10T05:41:25;6.73;;;5.47;;
10031;SDS011;5056;44.272;19.892;2023-05-10T05:43:52;4.57;;;4.17;;
10031;SDS011;5056;44.272;19.892;2023-05-10T05:46:19;4.50;;;4.20;;
10031;SDS011;5056;44.272;19.892;2023-05-10T05:48:46;4.75;;;4.35;;
10031;SDS011;5056;44.272;19.892;2023-05-10T05:51:17;3.95;;;3.55;;
10031;SDS011;5056;44.272;19.892;2023-05-10T05:53:45;3.95;;;3.65;;
10031;SDS011;5056;44.272;19.892;2023-05-10T05:56:13;3.30;;;3.10;;
10031;SDS011;5056;44.272;19.892;2023-05-10T05:58:40;3.53;;;2.85;;
10031;SDS011;5056;44.272;19.892;2023-05-10T06:01:07;4.03;;;3.17;;
10031;SDS011;5056;44.272;19.892;2023-05-10T06:03:34;4.20;;;3.72;;
10031;SDS011;5056;44.272;19.892;2023-05-10T06:06:01;5.13;;;3.20;;
10031;SDS011;5056;44.272;19.892;2023-05-10T06:08:33;5.20;;;3.22;;
10031;SDS011;5056;44.272;19.892;2023-05-10T06:11:01;3.83;;;3.28;;
10031;SDS011;5056;44.272;19.892;2023-05-10T06:13:29;2.53;;;2.42;;
10031;SDS011;5056;44.272;19.892;2023-05-10T06:16:00;2.63;;;2.45;;
10031;SDS011;5056;44.272;19.892;2023-05-10T06:18:27;2.50;;;2.40;;
10031;SDS011;5056;44.272;19.892;2023-05-10T06:20:55;2.47;;;2.30;;
10031;SDS011;5056;44.272;19.892;2023-05-10T06:23:22;4.13;;;2.78;;
10031;SDS011;5056;44.272;19.892;2023-05-10T06:25:52;2.88;;;2.70;;
10031;SDS011;5056;44.272;19.892;2023-05-10T06:28:20;2.92;;;2.50;;
10031;SDS011;5056;44.272;19.892;2023-05-10T06:30:47;2.50;;;2.30;;
10031;SDS011;5056;44.272;19.892;2023-05-10T06:33:14;2.58;;;2.40;;
10031;SDS011;5056;44.272;19.892;2023-05-10T06:35:42;2.80;;;2.60;;
10031;SDS011;5056;44.272;19.892;2023-05-10T06:38:09;3.88;;;2.60;;
10031;SDS011;5056;44.272;19.892;2023-05-10T06:40:36;2.40;;;2.30;;
10031;SDS011;5056;44.272;19.892;2023-05-10T06:43:05;2.88;;;2.40;;
10031;SDS011;5056;44.272;19.892;2023-05-10T06:45:35;3.15;;;2.70;;
10031;SDS011;5056;44.272;19.892;2023-05-10T06:48:03;11.23;;;4.22;;
10031;SDS011;5056;44.272;19.892;2023-05-10T06:50:31;3.10;;;2.60;;
10031;SDS011;5056;44.272;19.892;2023-05-10T06:52:59;5.53;;;2.55;;
10031;SDS011;5056;44.272;19.892;2023-05-10T06:55:26;4.53;;;2.40;;
10031;SDS011;5056;44.272;19.892;2023-05-10T06:57:55;2.95;;;2.70;;
10031;SDS011;5056;44.272;19.892;2023-05-10T07:00:25;2.50;;;2.40;;
10031;SDS011;5056;44.272;19.892;2023-05-10T07:02:59;5.30;;;2.53;;
10031;SDS011;5056;44.272;19.892;2023-05-10T07:05:28;3.20;;;2.90;;
10031;SDS011;5056;44.272;19.892;2023-05-10T07:08:07;4.93;;;3.42;;
10031;SDS011;5056;44.272;19.892;2023-05-10T07:10:34;3.08;;;2.35;;
10031;SDS011;5056;44.272;19.892;2023-05-10T07:13:02;2.38;;;2.17;;
10031;SDS011;5056;44.272;19.892;2023-05-10T07:15:34;2.28;;;2.17;;
10031;SDS011;5056;44.272;19.892;2023-05-10T07:18:01;5.88;;;3.10;;
10031;SDS011;5056;44.272;19.892;2023-05-10T07:20:29;2.90;;;2.60;;
10031;SDS011;5056;44.272;19.892;2023-05-10T07:22:59;2.70;;;2.33;;
10031;SDS011;5056;44.272;19.892;2023-05-10T07:25:27;2.33;;;2.22;;
10031;SDS011;5056;44.272;19.892;2023-05-10T07:27:55;6.88;;;3.10;;
10031;SDS011;5056;44.272;19.892;2023-05-10T07:30:22;3.42;;;2.78;;
10031;SDS011;5056;44.272;19.892;2023-05-10T07:32:54;3.30;;;3.08;;
10031;SDS011;5056;44.272;19.892;2023-05-10T07:35:22;3.05;;;2.38;;
10031;SDS011;5056;44.272;19.892;2023-05-10T07:37:50;5.03;;;2.22;;
10031;SDS011;5056;44.272;19.892;2023-05-10T07:40:18;2.30;;;2.05;;
10031;SDS011;5056;44.272;19.892;2023-05-10T07:42:49;2.72;;;1.77;;
10031;SDS011;5056;44.272;19.892;2023-05-10T07:45:17;2.15;;;1.92;;
10031;SDS011;5056;44.272;19.892;2023-05-10T07:47:46;3.65;;;2.20;;
10031;SDS011;5056;44.272;19.892;2023-05-10T07:50:17;3.63;;;2.13;;
10031;SDS011;5056;44.272;19.892;2023-05-10T07:52:44;3.00;;;2.40;;
10031;SDS011;5056;44.272;19.892;2023-05-10T07:55:12;3.67;;;2.30;;
10031;SDS011;5056;44.272;19.892;2023-05-10T07:57:39;2.08;;;1.98;;
10031;SDS011;5056;44.272;19.892;2023-05-10T08:00:06;2.00;;;1.90;;
10031;SDS011;5056;44.272;19.892;2023-05-10T08:02:38;3.40;;;2.17;;
10031;SDS011;5056;44.272;19.892;2023-05-10T08:05:05;3.80;;;1.63;;
10031;SDS011;5056;44.272;19.892;2023-05-10T08:07:35;3.50;;;2.00;;
10031;SDS011;5056;44.272;19.892;2023-05-10T08:10:02;2.58;;;2.38;;
10031;SDS011;5056;44.272;19.892;2023-05-10T08:12:29;2.97;;;2.63;;
10031;SDS011;5056;44.272;19.892;2023-05-10T08:14:57;2.05;;;1.95;;
10031;SDS011;5056;44.272;19.892;2023-05-10T08:17:25;3.50;;;2.15;;
10031;SDS011;5056;44.272;19.892;2023-05-10T08:19:54;5.63;;;3.67;;
10031;SDS011;5056;44.272;19.892;2023-05-10T08:22:20;2.53;;;2.42;;
10031;SDS011;5056;44.272;19.892;2023-05-10T08:25:05;2.50;;;1.98;;
10031;SDS011;5056;44.272;19.892;2023-05-10T08:27:33;6.70;;;2.20;;
10031;SDS011;5056;44.272;19.892;2023-05-10T08:30:01;2.42;;;2.20;;
10031;SDS011;5056;44.272;19.892;2023-05-10T08:32:29;2.40;;;2.30;;
10031;SDS011;5056;44.272;19.892;2023-05-10T08:34:58;2.33;;;2.22;;
10031;SDS011;5056;44.272;19.892;2023-05-10T08:37:25;2.28;;;2.08;;
10031;SDS011;5056;44.272;19.892;2023-05-10T08:39:54;3.83;;;2.42;;
10031;SDS011;5056;44.272;19.892;2023-05-10T08:42:21;2.60;;;2.40;;
10031;SDS011;5056;44.272;19.892;2023-05-10T08:44:50;2.58;;;1.83;;
10031;SDS011;5056;44.272;19.892;2023-05-10T08:47:18;5.43;;;2.50;;
10031;SDS011;5056;44.272;19.892;2023-05-10T08:49:45;2.55;;;2.33;;
10031;SDS011;5056;44.272;19.892;2023-05-10T08:52:16;3.25;;;2.05;;
10031;SDS011;5056;44.272;19.892;2023-05-10T08:54:44;2.63;;;1.83;;
10031;SDS011;5056;44.272;19.892;2023-05-10T08:57:14;2.08;;;1.88;;
10031;SDS011;5056;44.272;19.892;2023-05-10T08:59:45;1.95;;;1.85;;
10031;SDS011;5056;44.272;19.892;2023-05-10T09:02:12;3.55;;;2.17;;
10031;SDS011;5056;44.272;19.892;2023-05-10T09:04:39;2.65;;;2.00;;
10031;SDS011;5056;44.272;19.892;2023-05-10T09:07:07;3.08;;;1.85;;
10031;SDS011;5056;44.272;19.892;2023-05-10T09:09:35;3.17;;;2.22;;
10031;SDS011;5056;44.272;19.892;2023-05-10T09:12:03;2.30;;;2.15;;
10031;SDS011;5056;44.272;19.892;2023-05-10T09:14:34;2.72;;;2.10;;
10031;SDS011;5056;44.272;19.892;2023-05-10T09:17:01;2.50;;;1.80;;
10031;SDS011;5056;44.272;19.892;2023-05-10T09:19:29;2.33;;;2.10;;
10031;SDS011;5056;44.272;19.892;2023-05-10T09:21:56;4.03;;;2.80;;
10031;SDS011;5056;44.272;19.892;2023-05-10T09:27:52;4.88;;;2.20;;
10031;SDS011;5056;44.272;19.892;2023-05-10T09:30:24;1.98;;;1.88;;
10031;SDS011;5056;44.272;19.892;2023-05-10T09:32:52;4.50;;;1.90;;
10031;SDS011;5056;44.272;19.892;2023-05-10T09:35:21;2.90;;;2.05;;
10031;SDS011;5056;44.272;19.892;2023-05-10T09:37:51;4.38;;;3.20;;
10031;SDS011;5056;44.272;19.892;2023-05-10T09:40:22;3.85;;;2.70;;
10031;SDS011;5056;44.272;19.892;2023-05-10T09:42:53;4.65;;;2.70;;
10031;SDS011;5056;44.272;19.892;2023-05-10T09:45:22;2.70;;;2.50;;
10031;SDS011;5056;44.272;19.892;2023-05-10T09:47:54;3.05;;;2.78;;
10031;SDS011;5056;44.272;19.892;2023-05-10T09:50:22;3.70;;;2.88;;
10031;SDS011;5056;44.272;19.892;2023-05-10T09:52:51;3.10;;;2.70;;
10031;SDS011;5056;44.272;19.892;2023-05-10T09:55:20;2.97;;;2.63;;
10031;SDS011;5056;44.272;19.892;2023-05-10T09:57:57;3.15;;;2.92;;
10031;SDS011;5056;44.272;19.892;2023-05-10T10:00:28;2.45;;;2.35;;
10031;SDS011;5056;44.272;19.892;2023-05-10T10:02:55;3.45;;;2.88;;
10031;SDS011;5056;44.272;19.892;2023-05-10T10:05:27;5.50;;;2.13;;
10031;SDS011;5056;44.272;19.892;2023-05-10T10:07:55;7.32;;;2.60;;
10031;SDS011;5056;44.272;19.892;2023-05-10T10:10:25;3.40;;;2.28;;
10031;SDS011;5056;44.272;19.892;2023-05-10T10:12:56;3.65;;;2.58;;
10031;SDS011;5056;44.272;19.892;2023-05-10T10:15:23;2.35;;;1.75;;
10031;SDS011;5056;44.272;19.892;2023-05-10T10:17:53;3.33;;;2.45;;
10031;SDS011;5056;44.272;19.892;2023-05-10T10:20:20;2.13;;;1.92;;
10031;SDS011;5056;44.272;19.892;2023-05-10T10:22:48;2.67;;;1.90;;
10031;SDS011;5056;44.272;19.892;2023-05-10T10:25:16;3.63;;;1.92;;
10031;SDS011;5056;44.272;19.892;2023-05-10T10:27:44;2.85;;;2.38;;
10031;SDS011;5056;44.272;19.892;2023-05-10T10:30:19;2.47;;;2.28;;
10031;SDS011;5056;44.272;19.892;2023-05-10T10:35:50;4.30;;;2.33;;
10031;SDS011;5056;44.272;19.892;2023-05-10T10:38:19;2.80;;;2.60;;
10031;SDS011;5056;44.272;19.892;2023-05-10T10:40:47;4.57;;;2.40;;
10031;SDS011;5056;44.272;19.892;2023-05-10T10:43:24;4.05;;;3.05;;
10031;SDS011;5056;44.272;19.892;2023-05-10T10:46:11;2.60;;;2.40;;
10031;SDS011;5056;44.272;19.892;2023-05-10T10:48:40;2.20;;;2.10;;
10031;SDS011;5056;44.272;19.892;2023-05-10T10:54:26;5.30;;;2.45;;
10031;SDS011;5056;44.272;19.892;2023-05-10T10:59:43;2.92;;;2.60;;
10031;SDS011;5056;44.272;19.892;2023-05-10T11:11:04;3.47;;;2.20;;
10031;SDS011;5056;44.272;19.892;2023-05-10T11:13:37;4.57;;;2.40;;
10031;SDS011;5056;44.272;19.892;2023-05-10T11:16:13;2.80;;;2.33;;
10031;SDS011;5056;44.272;19.892;2023-05-10T11:21:28;2.38;;;2.17;;
10031;SDS011;5056;44.272;19.892;2023-05-10T11:24:01;3.65;;;2.40;;
10031;SDS011;5056;44.272;19.892;2023-05-10T11:26:31;4.32;;;2.40;;
10031;SDS011;5056;44.272;19.892;2023-05-10T11:29:06;3.08;;;2.35;;
10031;SDS011;5056;44.272;19.892;2023-05-10T11:31:34;5.03;;;2.53;;
10031;SDS011;5056;44.272;19.892;2023-05-10T11:34:01;2.45;;;2.35;;
10031;SDS011;5056;44.272;19.892;2023-05-10T11:36:29;2.55;;;2.33;;
10031;SDS011;5056;44.272;19.892;2023-05-10T11:39:08;2.70;;;2.53;;
10031;SDS011;5056;44.272;19.892;2023-05-10T11:41:36;3.30;;;2.70;;
10031;SDS011;5056;44.272;19.892;2023-05-10T11:44:04;2.85;;;2.67;;
10031;SDS011;5056;44.272;19.892;2023-05-10T11:46:32;3.92;;;2.28;;
10031;SDS011;5056;44.272;19.892;2023-05-10T11:49:00;3.00;;;2.80;;
10031;SDS011;5056;44.272;19.892;2023-05-10T11:51:29;4.95;;;3.47;;
10031;SDS011;5056;44.272;19.892;2023-05-10T11:53:59;3.53;;;2.88;;
10031;SDS011;5056;44.272;19.892;2023-05-10T11:56:32;3.50;;;2.47;;
10031;SDS011;5056;44.272;19.892;2023-05-10T11:58:59;2.80;;;2.33;;
10031;SDS011;5056;44.272;19.892;2023-05-10T12:01:28;3.22;;;3.03;;
10031;SDS011;5056;44.272;19.892;2023-05-10T12:03:57;4.20;;;3.83;;
10031;SDS011;5056;44.272;19.892;2023-05-10T12:06:40;4.75;;;4.18;;
10031;SDS011;5056;44.272;19.892;2023-05-10T12:09:10;4.03;;;3.65;;
10031;SDS011;5056;44.272;19.892;2023-05-10T12:11:39;3.78;;;3.47;;
10031;SDS011;5056;44.272;19.892;2023-05-10T12:14:07;3.25;;;2.90;;
10031;SDS011;5056;44.272;19.892;2023-05-10T12:16:35;8.93;;;3.13;;
10031;SDS011;5056;44.272;19.892;2023-05-10T12:19:05;6.45;;;2.88;;
10031;SDS011;5056;44.272;19.892;2023-05-10T12:21:32;4.78;;;2.75;;
10031;SDS011;5056;44.272;19.892;2023-05-10T12:24:01;3.15;;;2.80;;
10031;SDS011;5056;44.272;19.892;2023-05-10T12:26:38;3.95;;;2.67;;
10031;SDS011;5056;44.272;19.892;2023-05-10T12:29:12;5.25;;;3.20;;
10031;SDS011;5056;44.272;19.892;2023-05-10T12:31:57;4.88;;;2.85;;
10031;SDS011;5056;44.272;19.892;2023-05-10T12:34:26;5.28;;;3.17;;
10031;SDS011;5056;44.272;19.892;2023-05-10T12:36:53;2.35;;;2.20;;
10031;SDS011;5056;44.272;19.892;2023-05-10T12:39:23;5.15;;;2.90;;
10031;SDS011;5056;44.272;19.892;2023-05-10T12:41:56;3.20;;;3.00;;
10031;SDS011;5056;44.272;19.892;2023-05-10T12:44:23;2.85;;;2.65;;
10031;SDS011;5056;44.272;19.892;2023-05-10T12:46:51;5.25;;;2.65;;
10031;SDS011;5056;44.272;19.892;2023-05-10T12:49:17;3.80;;;2.33;;
10031;SDS011;5056;44.272;19.892;2023-05-10T12:51:44;3.50;;;2.67;;
10031;SDS011;5056;44.272;19.892;2023-05-10T12:54:12;2.80;;;2.60;;
10031;SDS011;5056;44.272;19.892;2023-05-10T12:56:40;4.30;;;3.90;;
10031;SDS011;5056;44.272;19.892;2023-05-10T12:59:26;3.75;;;3.47;;
10031;SDS011;5056;44.272;19.892;2023-05-10T13:01:56;6.15;;;3.10;;
10031;SDS011;5056;44.272;19.892;2023-05-10T13:04:24;5.50;;;2.60;;
10031;SDS011;5056;44.272;19.892;2023-05-10T13:06:52;4.18;;;2.63;;
10031;SDS011;5056;44.272;19.892;2023-05-10T13:09:21;2.97;;;2.75;;
10031;SDS011;5056;44.272;19.892;2023-05-10T13:11:48;3.47;;;2.13;;
10031;SDS011;5056;44.272;19.892;2023-05-10T13:14:15;3.30;;;2.97;;
10031;SDS011;5056;44.272;19.892;2023-05-10T13:16:46;2.83;;;2.63;;
10031;SDS011;5056;44.272;19.892;2023-05-10T13:19:13;2.90;;;2.30;;
10031;SDS011;5056;44.272;19.892;2023-05-10T13:21:42;2.20;;;2.00;;
10031;SDS011;5056;44.272;19.892;2023-05-10T13:24:11;3.53;;;2.33;;
10031;SDS011;5056;44.272;19.892;2023-05-10T13:26:39;4.07;;;2.20;;
10031;SDS011;5056;44.272;19.892;2023-05-10T13:29:06;3.17;;;2.17;;
10031;SDS011;5056;44.272;19.892;2023-05-10T13:34:15;3.90;;;2.45;;
10031;SDS011;5056;44.272;19.892;2023-05-10T13:36:45;2.78;;;2.58;;
10031;SDS011;5056;44.272;19.892;2023-05-10T13:39:13;2.70;;;2.33;;
10031;SDS011;5056;44.272;19.892;2023-05-10T13:41:41;3.08;;;2.80;;
10031;SDS011;5056;44.272;19.892;2023-05-10T13:44:09;2.55;;;2.28;;
10031;SDS011;5056;44.272;19.892;2023-05-10T13:46:38;4.05;;;2.70;;
10031;SDS011;5056;44.272;19.892;2023-05-10T13:49:13;3.50;;;2.50;;
10031;SDS011;5056;44.272;19.892;2023-05-10T13:51:42;3.03;;;2.60;;
10031;SDS011;5056;44.272;19.892;2023-05-10T13:54:09;6.95;;;2.67;;
10031;SDS011;5056;44.272;19.892;2023-05-10T13:56:37;3.33;;;2.85;;
10031;SDS011;5056;44.272;19.892;2023-05-10T13:59:06;2.17;;;2.08;;
10031;SDS011;5056;44.272;19.892;2023-05-10T14:01:35;4.57;;;3.00;;
10031;SDS011;5056;44.272;19.892;2023-05-10T14:04:12;5.07;;;2.67;;
10031;SDS011;5056;44.272;19.892;2023-05-10T14:06:39;2.65;;;2.45;;
10031;SDS011;5056;44.272;19.892;2023-05-10T14:09:09;3.17;;;2.65;;
10031;SDS011;5056;44.272;19.892;2023-05-10T14:11:40;4.43;;;2.85;;
10031;SDS011;5056;44.272;19.892;2023-05-10T14:14:08;2.85;;;2.65;;
10031;SDS011;5056;44.272;19.892;2023-05-10T14:16:36;3.70;;;2.50;;
10031;SDS011;5056;44.272;19.892;2023-05-10T14:19:03;3.70;;;2.63;;
10031;SDS011;5056;44.272;19.892;2023-05-10T14:21:34;3.33;;;3.05;;
10031;SDS011;5056;44.272;19.892;2023-05-10T14:24:01;3.38;;;2.60;;
10031;SDS011;5056;44.272;19.892;2023-05-10T14:26:29;3.20;;;3.00;;
10031;SDS011;5056;44.272;19.892;2023-05-10T14:28:56;5.35;;;3.22;;
10031;SDS011;5056;44.272;19.892;2023-05-10T14:31:25;8.57;;;4.15;;
10031;SDS011;5056;44.272;19.892;2023-05-10T14:34:11;4.10;;;3.70;;
10031;SDS011;5056;44.272;19.892;2023-05-10T14:36:40;5.35;;;3.40;;
10031;SDS011;5056;44.272;19.892;2023-05-10T14:39:10;3.45;;;3.17;;
10031;SDS011;5056;44.272;19.892;2023-05-10T14:41:42;5.35;;;2.80;;
10031;SDS011;5056;44.272;19.892;2023-05-10T14:44:13;3.72;;;2.95;;
10031;SDS011;5056;44.272;19.892;2023-05-10T14:46:42;8.15;;;3.10;;
10031;SDS011;5056;44.272;19.892;2023-05-10T14:49:10;4.43;;;3.65;;
10031;SDS011;5056;44.272;19.892;2023-05-10T14:51:41;4.60;;;3.22;;
10031;SDS011;5056;44.272;19.892;2023-05-10T14:54:07;3.53;;;3.10;;
10031;SDS011;5056;44.272;19.892;2023-05-10T14:59:30;3.97;;;3.67;;
10031;SDS011;5056;44.272;19.892;2023-05-10T15:01:58;4.80;;;3.17;;
10031;SDS011;5056;44.272;19.892;2023-05-10T15:04:25;4.25;;;3.72;;
10031;SDS011;5056;44.272;19.892;2023-05-10T15:06:56;2.92;;;2.72;;
10031;SDS011;5056;44.272;19.892;2023-05-10T15:09:32;6.82;;;4.07;;
10031;SDS011;5056;44.272;19.892;2023-05-10T15:11:59;3.38;;;3.17;;
10031;SDS011;5056;44.272;19.892;2023-05-10T15:17:41;3.28;;;2.97;;
10031;SDS011;5056;44.272;19.892;2023-05-10T15:20:09;4.75;;;4.13;;
10031;SDS011;5056;44.272;19.892;2023-05-10T15:22:38;4.68;;;2.90;;
10031;SDS011;5056;44.272;19.892;2023-05-10T15:25:06;5.35;;;3.67;;
10031;SDS011;5056;44.272;19.892;2023-05-10T15:30:22;3.17;;;2.97;;
10031;SDS011;5056;44.272;19.892;2023-05-10T15:33:13;3.55;;;3.20;;
10031;SDS011;5056;44.272;19.892;2023-05-10T15:35:40;3.97;;;3.67;;
10031;SDS011;5056;44.272;19.892;2023-05-10T15:38:09;3.65;;;3.45;;
10031;SDS011;5056;44.272;19.892;2023-05-10T15:40:37;5.00;;;3.38;;
10031;SDS011;5056;44.272;19.892;2023-05-10T15:43:04;3.35;;;3.10;;
10031;SDS011;5056;44.272;19.892;2023-05-10T15:45:33;3.92;;;3.17;;
10031;SDS011;5056;44.272;19.892;2023-05-10T15:48:00;3.60;;;3.30;;